Woods Hole — WDI3700 — position and weather

sailwx.info

Track history (hours):
 
Tides and Currents Weather Stations Pressure Air Temp Water Temp Dewpoint Dewpoint Depression Visibility Wind Speed Wind Dir Waves Ship Positions

Woods Hole

Owner: WOODS HOLE,MARTHA'S VINEYARD AND NANTUCKET STEAMSHIP AUTHORITY, Woods Hole, MA. More information available from US FCC via Universal Licensing System and Coast Guard Vessel Documentation Center.

Last reported at 2017-Oct-19 23:27 UTC. Time now 2017-Oct-19 23:39 UTC.
Position N 41°31' W 070°40'.

Length 71 m; draft 4 m.

Type: Passenger vessel. MMSI: 367691010.

Date/timePositionNaut miles runAvg speedWind from/ knotsBaromVisibWave heightAir tempDewpointWater temp
2017-Oct-19 23:27N 41°31' W 070°40'1 0.1
2017-Oct-19 14:01N 41°31' W 070°40'011.0
2017-Oct-19 14:00N 41°31' W 070°40'1 1.5
2017-Oct-19 13:30N 41°31' W 070°40'5 6.2
2017-Oct-19 12:40N 41°28' W 070°36'0 0.4
2017-Oct-19 12:06N 41°27' W 070°36'1 7.9
2017-Oct-19 11:59N 41°28' W 070°35'5 9.8
2017-Oct-19 11:29N 41°31' W 070°40'5 6.4
2017-Oct-19 10:41N 41°28' W 070°35'1 2.8
2017-Oct-19 10:30N 41°27' W 070°36'1 2.0
2017-Oct-19 10:00N 41°28' W 070°35'5 7.2
2017-Oct-19 09:20N 41°31' W 070°40'0 0.0
2017-Oct-19 08:59N 41°31' W 070°40'0 0.0
2017-Oct-19 06:30N 41°31' W 070°40'0 0.0
2017-Oct-19 04:55N 41°31' W 070°40'0 0.0
2017-Oct-19 03:42N 41°31' W 070°40'0 0.0
2017-Oct-19 03:30N 41°31' W 070°40'0 0.0
2017-Oct-19 03:00N 41°31' W 070°40'0 0.0
2017-Oct-19 02:29N 41°31' W 070°40'0 0.0
2017-Oct-19 01:52N 41°31' W 070°40'0 0.0
2017-Oct-19 01:19N 41°31' W 070°40'  
2017-Oct-16 00:10N 41°30' W 070°37'310.4
2017-Oct-15 23:53N 41°31' W 070°40'10 6.6
2017-Oct-15 22:25N 41°29' W 070°28'812.5
2017-Oct-15 21:48N 41°34' W 070°20'411.2
2017-Oct-15 21:29N 41°37' W 070°18'2 0.1
2017-Oct-15 01:58N 41°39' W 070°17'4 7.9
2017-Oct-15 01:31N 41°35' W 070°17'8 2.7
2017-Oct-14 22:38N 41°28' W 070°12'214.5
2017-Oct-14 22:30N 41°30' W 070°14'612.5
2017-Oct-14 22:00N 41°36' W 070°17'3 6.5
2017-Oct-14 21:30N 41°39' W 070°17'0 0.0
2017-Oct-14 21:00N 41°39' W 070°17'3 5.2
2017-Oct-14 20:31N 41°37' W 070°17'6 1.6
2017-Oct-14 16:53N 41°31' W 070°15'512.5
2017-Oct-14 16:31N 41°36' W 070°17'4 6.9
2017-Oct-14 16:00N 41°39' W 070°17'0 0.0
2017-Oct-14 15:30N 41°39' W 070°17'2 3.2
2017-Oct-14 15:01N 41°37' W 070°17'611.5
2017-Oct-14 14:31N 41°32' W 070°15'5 1.8
2017-Oct-14 11:45N 41°27' W 070°12'  
2017-Oct-11 23:49N 41°17' W 070°06'2 4.7
2017-Oct-11 23:29N 41°19' W 070°06'613.6
2017-Oct-11 23:00N 41°25' W 070°10'713.3
2017-Oct-11 22:30N 41°30' W 070°14'611.9
2017-Oct-11 22:00N 41°36' W 070°17'9 1.9
2017-Oct-11 17:13N 41°28' W 070°12'314.3
2017-Oct-11 17:00N 41°31' W 070°14'0 0.0
2017-Oct-10 22:21N 41°31' W 070°14'513.2
2017-Oct-10 22:00N 41°35' W 070°17'4 8.2
2017-Oct-10 21:30N 41°39' W 070°17'0 0.0
2017-Oct-10 21:00N 41°39' W 070°17'2 3.2
2017-Oct-10 20:30N 41°37' W 070°17'611.8
2017-Oct-10 20:00N 41°32' W 070°14'4 1.6
2017-Oct-10 17:11N 41°28' W 070°12'315.0
2017-Oct-10 17:00N 41°30' W 070°14'713.4
2017-Oct-10 16:30N 41°36' W 070°17'3 5.8
2017-Oct-10 16:01N 41°39' W 070°17'0 0.0
2017-Oct-10 15:29N 41°39' W 070°17'2 3.3
2017-Oct-10 15:01N 41°37' W 070°17'6 1.6
2017-Oct-10 11:22N 41°32' W 070°15'512.8
2017-Oct-10 11:00N 41°36' W 070°17'3 6.1
2017-Oct-10 10:30N 41°39' W 070°17'0 0.0
2017-Oct-10 10:00N 41°39' W 070°17'0 0.0
2017-Oct-10 03:44N 41°39' W 070°17'0 0.0
2017-Oct-10 03:30N 41°39' W 070°17'0 0.0
2017-Oct-10 03:01N 41°39' W 070°17'0 0.0
2017-Oct-10 02:31N 41°39' W 070°17'0 0.1
2017-Oct-10 02:00N 41°39' W 070°17'4 8.5
2017-Oct-10 01:30N 41°35' W 070°16'  
Track history (hours):
 
Tides and Currents Weather Stations Pressure Air Temp Water Temp Dewpoint Dewpoint Depression Visibility Wind Speed Wind Dir Waves Ship Positions

Woods Hole

Owner: WOODS HOLE,MARTHA'S VINEYARD AND NANTUCKET STEAMSHIP AUTHORITY, Woods Hole, MA. More information available from US FCC via Universal Licensing System and Coast Guard Vessel Documentation Center.

Last reported at 2017-Oct-19 23:27 UTC. Time now 2017-Oct-19 23:39 UTC.
Position N 41°31' W 070°40'.

Length 71 m; draft 4 m.

Type: Passenger vessel. MMSI: 367691010.

Date/timePositionNaut miles runAvg speedWind from/ knotsBaromVisibWave heightAir tempDewpointWater temp
2017-Oct-19 23:27N 41°31' W 070°40'1 0.1
2017-Oct-19 14:01N 41°31' W 070°40'011.0
2017-Oct-19 14:00N 41°31' W 070°40'1 1.5
2017-Oct-19 13:30N 41°31' W 070°40'5 6.2
2017-Oct-19 12:40N 41°28' W 070°36'0 0.4
2017-Oct-19 12:06N 41°27' W 070°36'1 7.9
2017-Oct-19 11:59N 41°28' W 070°35'5 9.8
2017-Oct-19 11:29N 41°31' W 070°40'5 6.4
2017-Oct-19 10:41N 41°28' W 070°35'1 2.8
2017-Oct-19 10:30N 41°27' W 070°36'1 2.0
2017-Oct-19 10:00N 41°28' W 070°35'5 7.2
2017-Oct-19 09:20N 41°31' W 070°40'0 0.0
2017-Oct-19 08:59N 41°31' W 070°40'0 0.0
2017-Oct-19 06:30N 41°31' W 070°40'0 0.0
2017-Oct-19 04:55N 41°31' W 070°40'0 0.0
2017-Oct-19 03:42N 41°31' W 070°40'0 0.0
2017-Oct-19 03:30N 41°31' W 070°40'0 0.0
2017-Oct-19 03:00N 41°31' W 070°40'0 0.0
2017-Oct-19 02:29N 41°31' W 070°40'0 0.0
2017-Oct-19 01:52N 41°31' W 070°40'0 0.0
2017-Oct-19 01:19N 41°31' W 070°40'  
2017-Oct-16 00:10N 41°30' W 070°37'310.4
2017-Oct-15 23:53N 41°31' W 070°40'10 6.6
2017-Oct-15 22:25N 41°29' W 070°28'812.5
2017-Oct-15 21:48N 41°34' W 070°20'411.2
2017-Oct-15 21:29N 41°37' W 070°18'2 0.1
2017-Oct-15 01:58N 41°39' W 070°17'4 7.9
2017-Oct-15 01:31N 41°35' W 070°17'8 2.7
2017-Oct-14 22:38N 41°28' W 070°12'214.5
2017-Oct-14 22:30N 41°30' W 070°14'612.5
2017-Oct-14 22:00N 41°36' W 070°17'3 6.5
2017-Oct-14 21:30N 41°39' W 070°17'0 0.0
2017-Oct-14 21:00N 41°39' W 070°17'3 5.2
2017-Oct-14 20:31N 41°37' W 070°17'6 1.6
2017-Oct-14 16:53N 41°31' W 070°15'512.5
2017-Oct-14 16:31N 41°36' W 070°17'4 6.9
2017-Oct-14 16:00N 41°39' W 070°17'0 0.0
2017-Oct-14 15:30N 41°39' W 070°17'2 3.2
2017-Oct-14 15:01N 41°37' W 070°17'611.5
2017-Oct-14 14:31N 41°32' W 070°15'5 1.8
2017-Oct-14 11:45N 41°27' W 070°12'  
2017-Oct-11 23:49N 41°17' W 070°06'2 4.7
2017-Oct-11 23:29N 41°19' W 070°06'613.6
2017-Oct-11 23:00N 41°25' W 070°10'713.3
2017-Oct-11 22:30N 41°30' W 070°14'611.9
2017-Oct-11 22:00N 41°36' W 070°17'9 1.9
2017-Oct-11 17:13N 41°28' W 070°12'314.3
2017-Oct-11 17:00N 41°31' W 070°14'0 0.0
2017-Oct-10 22:21N 41°31' W 070°14'513.2
2017-Oct-10 22:00N 41°35' W 070°17'4 8.2
2017-Oct-10 21:30N 41°39' W 070°17'0 0.0
2017-Oct-10 21:00N 41°39' W 070°17'2 3.2
2017-Oct-10 20:30N 41°37' W 070°17'611.8
2017-Oct-10 20:00N 41°32' W 070°14'4 1.6
2017-Oct-10 17:11N 41°28' W 070°12'315.0
2017-Oct-10 17:00N 41°30' W 070°14'713.4
2017-Oct-10 16:30N 41°36' W 070°17'3 5.8
2017-Oct-10 16:01N 41°39' W 070°17'0 0.0
2017-Oct-10 15:29N 41°39' W 070°17'2 3.3
2017-Oct-10 15:01N 41°37' W 070°17'6 1.6
2017-Oct-10 11:22N 41°32' W 070°15'512.8
2017-Oct-10 11:00N 41°36' W 070°17'3 6.1
2017-Oct-10 10:30N 41°39' W 070°17'0 0.0
2017-Oct-10 10:00N 41°39' W 070°17'0 0.0
2017-Oct-10 03:44N 41°39' W 070°17'0 0.0
2017-Oct-10 03:30N 41°39' W 070°17'0 0.0
2017-Oct-10 03:01N 41°39' W 070°17'0 0.0
2017-Oct-10 02:31N 41°39' W 070°17'0 0.1
2017-Oct-10 02:00N 41°39' W 070°17'4 8.5
2017-Oct-10 01:30N 41°35' W 070°16'  

Dump ship's entire track history